Time;durP1;ratioP1;P1;durP2;ratioP2;P2;SDS_P1;SDS_P2;PMS_P1;PMS_P2;Temp;Humidity;BMP_temperature;BMP_pressure;BME280_temperature;BME280_humidity;BME280_pressure;Samples;Min_cycle;Max_cycle;Signal;HPM_P1;HPM_P2
2022/04/16 00:01:49;;;;;;;10.60;7.50;;;;;;;10.59;75.56;98643.70;104809;1271;74124;-26
2022/04/16 00:04:17;;;;;;;9.60;7.10;;;;;;;10.67;74.97;98649.41;105008;1271;62168;-26
2022/04/16 00:06:48;;;;;;;10.60;7.60;;;;;;;10.55;74.94;98648.55;104806;1273;61539;-26
2022/04/16 00:09:17;;;;;;;11.00;7.80;;;;;;;10.37;75.48;98646.11;104755;1273;75737;-26
2022/04/16 00:11:46;;;;;;;11.40;8.50;;;;;;;10.22;75.85;98646.47;104853;1271;74848;-26
2022/04/16 00:14:15;;;;;;;9.60;6.40;;;;;;;10.11;76.55;98648.87;105146;1271;74542;-26
2022/04/16 00:16:44;;;;;;;11.60;8.00;;;;;;;10.51;75.48;98647.14;104887;1271;61138;-26
2022/04/16 00:19:14;;;;;;;10.70;8.60;;;;;;;10.61;74.83;98645.21;104937;1271;61796;-26
2022/04/16 00:21:43;;;;;;;10.80;8.10;;;;;;;10.59;74.75;98647.27;105118;1271;73633;-26
2022/04/16 00:24:12;;;;;;;12.00;8.60;;;;;;;10.50;74.94;98643.56;105140;1271;75291;-26
2022/04/16 00:26:41;;;;;;;12.90;9.10;;;;;;;10.35;75.50;98642.80;105085;1273;74182;-26
2022/04/16 00:29:12;;;;;;;10.50;7.30;;;;;;;10.08;76.59;98642.16;104789;1271;61872;-26
2022/04/16 00:31:45;;;;;;;10.70;7.50;;;;;;;9.90;77.62;98637.09;104800;1271;61020;-26
2022/04/16 00:34:14;;;;;;;12.20;8.10;;;;;;;10.31;76.27;98641.89;104600;1271;75516;-26
2022/04/16 00:36:45;;;;;;;12.70;7.70;;;;;;;10.62;74.80;98637.21;104753;1272;75991;-26
2022/04/16 00:39:15;;;;;;;8.90;6.90;;;;;;;10.59;74.73;98644.57;104799;1271;74631;-26
2022/04/16 00:41:43;;;;;;;11.30;7.70;;;;;;;10.38;75.83;98642.85;104958;1271;61113;-25
2022/04/16 00:44:13;;;;;;;12.10;8.20;;;;;;;10.22;76.71;98646.80;104815;1271;61935;-25
2022/04/16 00:46:41;;;;;;;11.20;6.00;;;;;;;10.04;77.66;98644.86;105128;1271;75806;-25
2022/04/16 00:49:10;;;;;;;10.20;6.90;;;;;;;10.32;77.03;98646.65;105038;1271;76094;-25
2022/04/16 00:51:39;;;;;;;14.90;8.40;;;;;;;10.58;75.85;98647.05;105011;1271;74445;-25
2022/04/16 00:54:08;;;;;;;10.80;7.00;;;;;;;10.64;75.71;98649.19;105010;1271;61141;-25
2022/04/16 00:56:38;;;;;;;11.00;7.10;;;;;;;10.43;76.38;98647.65;104750;1271;61114;-27
2022/04/16 00:59:07;;;;;;;13.50;8.60;;;;;;;10.22;77.30;98644.41;104700;1272;75808;-25
2022/04/16 01:01:35;;;;;;;10.90;8.10;;;;;;;9.92;78.60;98639.81;104784;1273;75943;-26
2022/04/16 01:04:18;;;;;;;10.10;6.80;;;;;;;10.01;79.02;98645.98;105681;1263;74446;-25
2022/04/16 01:06:48;;;;;;;12.40;8.70;;;;;;;10.47;76.84;98648.71;104746;1275;61089;-25
2022/04/16 01:09:17;;;;;;;12.90;8.50;;;;;;;10.42;76.77;98646.73;105026;1273;61752;-25
2022/04/16 01:11:46;;;;;;;9.90;7.60;;;;;;;10.32;77.32;98651.20;104723;1276;75702;-25
2022/04/16 01:14:18;;;;;;;8.20;5.70;;;;;;;10.22;77.70;98648.56;105151;1274;76134;-25
2022/04/16 01:16:47;;;;;;;11.20;8.30;;;;;;;9.98;78.62;98651.30;104857;1274;74447;-25
2022/04/16 01:19:16;;;;;;;9.30;6.30;;;;;;;9.89;79.34;98646.31;105045;1274;62704;-25
2022/04/16 01:21:59;;;;;;;11.10;7.30;;;;;;;10.29;77.84;98647.92;104759;1274;61166;-25
2022/04/16 01:24:28;;;;;;;11.60;7.50;;;;;;;10.59;76.17;98649.55;104640;1274;74637;-25
2022/04/16 01:26:58;;;;;;;11.20;7.90;;;;;;;10.20;77.63;98645.46;104704;1274;76060;-26
2022/04/16 01:29:27;;;;;;;10.70;8.00;;;;;;;10.07;78.28;98644.96;104823;1274;73170;-27
2022/04/16 01:31:56;;;;;;;11.40;8.10;;;;;;;9.91;78.99;98646.21;104768;1274;61831;-26
2022/04/16 01:34:25;;;;;;;6.60;5.20;;;;;;;9.83;79.20;98639.20;104676;1274;61844;-25
2022/04/16 01:37:02;;;;;;;10.50;6.90;;;;;;;10.11;78.23;98640.81;105070;1274;75183;-26
2022/04/16 01:39:31;;;;;;;9.10;7.30;;;;;;;10.49;76.60;98639.48;104804;1274;76243;-26
2022/04/16 01:41:59;;;;;;;9.50;7.00;;;;;;;10.39;76.63;98641.38;105017;1273;74414;-26
2022/04/16 01:44:29;;;;;;;10.90;7.80;;;;;;;10.33;76.52;98638.82;105106;1274;61165;-26
2022/04/16 01:46:58;;;;;;;12.40;8.00;;;;;;;10.08;77.44;98639.84;104917;1274;61196;-26
2022/04/16 01:49:27;;;;;;;8.60;6.30;;;;;;;9.93;78.22;98636.66;104375;1274;469922;-26
2022/04/16 01:51:57;;;;;;;8.50;5.90;;;;;;;10.23;77.58;98636.48;104758;1274;76321;-25
2022/04/16 01:54:27;;;;;;;9.50;6.70;;;;;;;10.66;75.46;98634.34;105044;1274;74112;-26
2022/04/16 01:56:56;;;;;;;8.20;6.10;;;;;;;10.51;75.84;98632.54;104751;1274;61250;-26
2022/04/16 01:59:26;;;;;;;10.10;6.90;;;;;;;10.31;76.65;98633.79;104927;1274;61803;-26
2022/04/16 02:01:56;;;;;;;9.80;6.80;;;;;;;10.19;77.03;98638.25;104976;1274;75380;-26
2022/04/16 02:04:26;;;;;;;11.80;7.60;;;;;;;9.97;77.95;98636.62;104530;1274;75871;-26
2022/04/16 02:07:06;;;;;;;7.20;4.90;;;;;;;9.87;78.52;98640.97;104821;1274;74409;-25
2022/04/16 02:09:34;;;;;;;8.80;5.80;;;;;;;10.25;77.38;98642.25;104760;1274;61151;-26
2022/04/16 02:12:03;;;;;;;9.70;7.10;;;;;;;10.59;76.11;98636.42;104737;1274;61045;-26
2022/04/16 02:14:32;;;;;;;11.40;7.50;;;;;;;10.57;75.87;98638.52;104870;1274;73601;-26
2022/04/16 02:17:08;;;;;;;10.40;7.20;;;;;;;10.36;76.59;98634.50;104750;1274;75947;-26
2022/04/16 02:19:39;;;;;;;13.40;9.40;;;;;;;9.88;79.07;98633.41;104631;1274;74406;-26
2022/04/16 02:22:46;;;;;;;10.60;6.70;;;;;;;9.69;80.48;98629.86;104796;1274;63730;-26
2022/04/16 02:25:35;;;;;;;14.50;7.90;;;;;;;10.04;79.26;98629.28;104733;1274;63393;-26
2022/04/16 02:28:04;;;;;;;10.00;7.70;;;;;;;10.11;78.79;98627.00;105085;1274;75381;-26
2022/04/16 02:30:33;;;;;;;11.90;7.90;;;;;;;10.06;78.90;98627.15;104862;1274;75659;-26
2022/04/16 02:33:02;;;;;;;8.80;6.00;;;;;;;9.85;79.83;98622.04;104818;1274;74405;-26
2022/04/16 02:35:32;;;;;;;12.20;7.60;;;;;;;9.66;80.80;98623.14;104679;1276;61890;-26
2022/04/16 02:38:03;;;;;;;8.30;5.50;;;;;;;9.70;80.51;98623.70;105070;1274;61154;-26
2022/04/16 02:40:33;;;;;;;8.30;5.30;;;;;;;9.93;79.84;98624.35;105004;1274;75703;-26
2022/04/16 02:43:01;;;;;;;8.30;6.10;;;;;;;10.29;78.28;98627.48;104782;1274;75937;-26
2022/04/16 02:48:29;;;;;;;11.00;7.00;;;;;;;9.98;79.20;98623.36;105037;1274;61047;-26
2022/04/16 02:51:15;;;;;;;10.70;6.70;;;;;;;9.75;80.03;98621.18;104992;1274;61078;-25
2022/04/16 02:53:44;;;;;;;7.80;4.80;;;;;;;9.65;80.52;98619.73;105073;1274;75532;-26
2022/04/16 02:56:12;;;;;;;10.60;6.20;;;;;;;9.92;79.34;98624.61;105020;1274;75854;-26
2022/04/16 02:58:41;;;;;;;8.80;6.60;;;;;;;9.94;79.19;98620.59;104640;1276;74565;-26
2022/04/16 03:01:09;;;;;;;10.20;6.20;;;;;;;9.85;79.45;98618.59;104831;1274;62081;-25
2022/04/16 03:03:41;;;;;;;8.00;6.50;;;;;;;9.61;80.50;98621.45;105110;1274;61124;-26
2022/04/16 03:06:16;;;;;;;8.80;6.10;;;;;;;9.57;80.62;98625.64;104756;1274;74048;-25
2022/04/16 03:08:45;;;;;;;11.10;5.70;;;;;;;9.48;81.25;98626.91;104681;1274;75014;-25
2022/04/16 03:11:14;;;;;;;7.30;5.60;;;;;;;9.80;79.98;98631.83;104856;1274;74643;-25
2022/04/16 03:13:42;;;;;;;8.50;5.50;;;;;;;10.06;78.77;98631.27;105105;1274;61147;-26
2022/04/16 03:19:19;;;;;;;8.80;5.80;;;;;;;9.69;79.75;98630.34;104268;1287;61055;-25
2022/04/16 03:21:57;;;;;;;8.50;5.20;;;;;;;9.51;80.47;98628.00;104407;1284;61054;-25
2022/04/16 03:24:26;;;;;;;7.70;5.40;;;;;;;9.44;81.03;98629.50;104436;1284;73698;-25
2022/04/16 03:26:56;;;;;;;7.70;5.40;;;;;;;9.84;79.49;98627.73;104367;1284;76047;-25
2022/04/16 03:29:25;;;;;;;7.60;5.10;;;;;;;10.00;78.54;98631.23;103804;1281;760743;-25
2022/04/16 03:31:55;;;;;;;6.20;4.70;;;;;;;9.90;78.68;98633.27;104387;1281;62130;-25
2022/04/16 03:34:24;;;;;;;8.30;6.20;;;;;;;9.72;79.34;98631.46;104519;1280;62163;-25
2022/04/16 03:36:54;;;;;;;9.20;5.00;;;;;;;9.64;79.82;98639.58;104351;1281;73057;-26
2022/04/16 03:39:23;;;;;;;6.10;4.40;;;;;;;9.36;81.07;98633.92;104430;1281;76243;-26
2022/04/16 03:41:51;;;;;;;7.10;4.70;;;;;;;9.84;79.63;98632.69;104499;1284;73180;-27
2022/04/16 03:44:20;;;;;;;7.40;4.40;;;;;;;10.16;77.91;98633.27;104387;1281;62098;-28
2022/04/16 03:46:48;;;;;;;8.10;5.40;;;;;;;9.98;78.47;98632.93;104352;1281;61042;-28
2022/04/16 03:49:17;;;;;;;8.30;5.90;;;;;;;9.85;78.99;98631.76;104415;1281;74722;-27
2022/04/16 03:51:48;;;;;;;7.90;5.60;;;;;;;9.59;80.20;98627.88;104145;1281;75856;-27
2022/04/16 04:00:03;;;;;;;6.90;5.70;;;;;;;10.17;77.55;98628.83;104444;1281;61063;-27
2022/04/16 04:02:39;;;;;;;7.30;5.10;;;;;;;9.91;78.82;98626.59;104484;1281;74887;-27
2022/04/16 04:05:08;;;;;;;6.70;4.50;;;;;;;9.83;79.09;98625.84;104526;1284;75246;-28
2022/04/16 04:07:36;;;;;;;7.40;6.20;;;;;;;9.63;80.06;98626.80;104229;1283;74261;-28
2022/04/16 04:10:07;;;;;;;7.30;4.50;;;;;;;9.41;80.94;98624.38;104130;1284;62480;-26
2022/04/16 04:12:37;;;;;;;6.60;5.00;;;;;;;9.82;79.68;98625.98;104028;1284;61118;-27
2022/04/16 04:15:08;;;;;;;6.40;4.90;;;;;;;9.96;78.81;98634.47;104340;1284;74548;-27
2022/04/16 04:17:58;;;;;;;10.00;5.70;;;;;;;9.93;78.97;98634.71;104036;1284;76150;-26
2022/04/16 04:20:28;;;;;;;10.60;6.80;;;;;;;9.68;79.68;98630.95;104380;1284;72393;-27
2022/04/16 04:23:00;;;;;;;6.30;4.60;;;;;;;9.50;80.76;98631.76;104627;1274;61070;-26
2022/04/16 04:25:29;;;;;;;8.40;4.90;;;;;;;9.62;80.37;98635.27;104823;1274;61904;-27
2022/04/16 04:27:58;;;;;;;5.90;4.70;;;;;;;9.94;79.03;98638.46;104707;1274;74954;-27
2022/04/16 04:30:44;;;;;;;11.10;5.10;;;;;;;9.91;79.08;98637.11;104797;1273;76146;-27
2022/04/16 04:33:13;;;;;;;8.50;4.90;;;;;;;9.84;79.16;98639.64;104783;1275;74422;-27
2022/04/16 04:35:42;;;;;;;6.60;5.20;;;;;;;9.78;79.34;98642.91;104863;1274;61860;-25
2022/04/16 04:38:11;;;;;;;4.90;3.90;;;;;;;9.51;80.61;98646.37;104644;1274;60990;-26
2022/04/16 04:40:40;;;;;;;7.80;4.00;;;;;;;9.79;79.98;98649.41;104846;1277;75007;-26
2022/04/16 04:43:08;;;;;;;7.90;6.00;;;;;;;9.87;79.30;98643.08;104921;1274;75978;-26
2022/04/16 04:45:38;;;;;;;5.80;4.00;;;;;;;9.80;79.39;98641.95;105087;1271;72319;-26
2022/04/16 04:48:07;;;;;;;6.90;4.20;;;;;;;9.47;80.94;98643.23;105087;1271;61128;-26
2022/04/16 04:50:36;;;;;;;7.50;5.50;;;;;;;9.47;81.00;98646.52;104950;1271;61163;-26
2022/04/16 04:53:06;;;;;;;7.00;4.70;;;;;;;9.47;81.32;98644.25;104888;1271;74842;-26
2022/04/16 04:55:34;;;;;;;9.70;4.40;;;;;;;9.83;79.92;98648.96;104878;1271;75984;-26
2022/04/16 04:58:03;;;;;;;7.00;4.30;;;;;;;9.87;79.32;98646.33;105004;1271;73380;-26
2022/04/16 05:00:47;;;;;;;7.30;5.50;;;;;;;9.78;79.73;98652.48;105094;1271;61016;-26
2022/04/16 05:03:15;;;;;;;8.00;5.60;;;;;;;9.50;80.78;98648.58;105157;1271;61204;-26
2022/04/16 05:05:44;;;;;;;5.70;4.30;;;;;;;9.44;81.42;98653.02;105137;1271;75013;-26
2022/04/16 05:08:13;;;;;;;4.40;3.50;;;;;;;10.02;79.34;98653.37;105067;1271;76071;-26
2022/04/16 05:10:43;;;;;;;6.80;5.20;;;;;;;10.06;78.22;98649.08;105047;1271;74453;-26
2022/04/16 05:13:11;;;;;;;6.90;4.30;;;;;;;9.92;78.75;98648.98;105127;1271;61132;-27
2022/04/16 05:15:40;;;;;;;7.00;5.00;;;;;;;9.82;79.01;98647.65;104942;1271;61134;-27
2022/04/16 05:18:09;;;;;;;5.20;4.00;;;;;;;9.71;79.82;98653.59;105020;1271;74834;-26
2022/04/16 05:20:52;;;;;;;4.70;3.30;;;;;;;9.88;79.60;98653.70;104915;1271;75804;-26
2022/04/16 05:23:20;;;;;;;6.10;4.10;;;;;;;10.20;78.00;98649.65;105089;1271;74108;-26
2022/04/16 05:25:49;;;;;;;8.60;6.60;;;;;;;10.20;77.94;98645.27;105117;1271;62322;-26
2022/04/16 05:28:17;;;;;;;8.60;5.50;;;;;;;10.16;78.13;98647.39;105199;1271;61196;-28
2022/04/16 05:30:48;;;;;;;7.30;6.10;;;;;;;9.98;78.95;98645.88;105031;1271;74726;-27
2022/04/16 05:36:04;;;;;;;6.10;4.20;;;;;;;9.62;80.51;98641.63;105149;1271;74368;-27
2022/04/16 05:38:33;;;;;;;6.70;4.80;;;;;;;9.96;79.33;98646.98;105155;1271;62000;-27
2022/04/16 05:41:01;;;;;;;4.80;3.90;;;;;;;9.91;79.06;98642.05;105122;1271;61121;-27
2022/04/16 05:43:30;;;;;;;4.70;3.60;;;;;;;9.80;79.39;98644.47;105065;1271;73726;-27
2022/04/16 05:45:59;;;;;;;5.20;4.20;;;;;;;9.75;79.50;98648.38;105130;1271;75890;-26
2022/04/16 05:48:28;;;;;;;4.60;2.90;;;;;;;9.79;79.47;98646.61;105066;1271;73763;-27
2022/04/16 05:50:58;;;;;;;3.80;2.70;;;;;;;10.22;77.59;98653.95;104956;1269;62121;-27
2022/04/16 05:53:27;;;;;;;3.40;2.50;;;;;;;10.02;77.39;98648.17;104961;1271;61045;-26
2022/04/16 05:55:58;;;;;;;2.40;1.90;;;;;;;9.92;78.01;98648.21;105071;1271;74772;-27
2022/04/16 05:58:27;;;;;;;2.60;2.20;;;;;;;9.66;79.21;98652.13;104816;1271;75901;-27
2022/04/16 06:00:56;;;;;;;3.00;1.90;;;;;;;9.51;79.48;98648.84;104917;1271;74355;-26
2022/04/16 06:03:25;;;;;;;1.50;1.20;;;;;;;9.40;79.73;98649.52;104951;1271;62487;-27
2022/04/16 06:05:54;;;;;;;1.30;1.10;;;;;;;9.61;78.41;98650.43;104861;1271;61472;-27
2022/04/16 06:08:22;;;;;;;1.60;1.20;;;;;;;9.44;78.38;98646.61;105117;1271;72372;-27
2022/04/16 06:11:04;;;;;;;2.10;1.50;;;;;;;9.38;78.18;98659.25;105053;1271;74801;-27
2022/04/16 06:13:34;;;;;;;2.60;1.70;;;;;;;9.10;78.74;98668.28;104888;1271;74219;-27
2022/04/16 06:16:06;;;;;;;4.20;2.00;;;;;;;8.72;79.37;98666.83;105082;1271;61132;-27
2022/04/16 06:18:34;;;;;;;3.50;2.20;;;;;;;8.94;78.58;98669.03;105135;1271;62088;-26
2022/04/16 06:21:03;;;;;;;2.60;1.40;;;;;;;9.06;77.61;98673.45;105087;1271;74738;-27
2022/04/16 06:23:31;;;;;;;2.80;2.20;;;;;;;9.06;77.46;98676.52;104885;1271;76020;-26
2022/04/16 06:26:01;;;;;;;2.60;2.00;;;;;;;8.69;78.40;98676.54;105059;1271;73372;-26
2022/04/16 06:28:30;;;;;;;2.70;1.70;;;;;;;8.56;78.08;98674.60;105120;1271;61042;-27
2022/04/16 06:30:59;;;;;;;2.20;1.80;;;;;;;8.36;78.05;98676.66;105051;1271;61069;-27
2022/04/16 06:33:27;;;;;;;6.10;2.50;;;;;;;8.60;77.26;98685.70;104903;1271;74507;-26
2022/04/16 06:35:56;;;;;;;10.50;2.90;;;;;;;8.53;76.28;98685.56;104927;1271;76087;-26
2022/04/16 06:38:24;;;;;;;2.10;1.90;;;;;;;8.26;76.56;98686.41;104916;1271;74414;-27
2022/04/16 06:40:53;;;;;;;1.90;1.60;;;;;;;8.00;77.10;98698.98;104986;1271;62148;-27
2022/04/16 06:43:22;;;;;;;3.20;1.60;;;;;;;7.96;77.49;98698.60;105071;1271;62072;-27
2022/04/16 06:45:51;;;;;;;2.20;1.50;;;;;;;8.18;76.62;98705.37;104919;1271;74728;-27
2022/04/16 06:48:20;;;;;;;14.10;7.60;;;;;;;8.50;75.40;98710.03;105084;1271;76228;-26
2022/04/16 06:50:49;;;;;;;20.40;10.70;;;;;;;8.36;75.35;98711.23;105156;1271;72172;-26
2022/04/16 06:53:20;;;;;;;2.20;1.60;;;;;;;8.21;75.75;98717.39;104982;1271;61045;-28
2022/04/16 06:55:48;;;;;;;3.20;2.20;;;;;;;7.84;77.03;98721.40;105015;1271;61086;-28
2022/04/16 06:58:17;;;;;;;13.40;6.60;;;;;;;7.86;77.05;98723.36;105005;1271;74625;-26
2022/04/16 07:00:46;;;;;;;4.10;2.50;;;;;;;8.20;75.92;98726.80;105121;1271;75012;-27
2022/04/16 07:03:15;;;;;;;5.00;3.00;;;;;;;8.39;75.37;98729.91;105122;1271;74190;-26
2022/04/16 07:05:43;;;;;;;28.10;14.10;;;;;;;8.35;75.48;98732.78;105148;1271;61175;-27
2022/04/16 07:08:25;;;;;;;5.10;2.60;;;;;;;8.22;75.81;98739.13;105024;1271;61119;-26
2022/04/16 07:10:55;;;;;;;2.40;2.10;;;;;;;7.85;77.43;98742.26;105101;1271;74585;-26
2022/04/16 07:13:44;;;;;;;3.10;2.50;;;;;;;7.89;77.51;98743.35;104964;1271;76223;-26
2022/04/16 07:16:12;;;;;;;1.50;1.40;;;;;;;8.08;76.92;98744.81;104922;1270;74412;-25
2022/04/16 07:18:43;;;;;;;2.50;1.90;;;;;;;7.96;77.64;98747.48;104884;1271;61775;-26
2022/04/16 07:21:12;;;;;;;3.80;2.60;;;;;;;7.75;79.07;98752.30;105087;1270;61911;-26
2022/04/16 07:24:01;;;;;;;3.90;2.60;;;;;;;7.47;80.97;98756.58;104862;1271;76065;-26
2022/04/16 07:26:30;;;;;;;2.00;1.40;;;;;;;7.57;81.35;98762.44;105088;1271;75988;-26
2022/04/16 07:28:59;;;;;;;2.20;1.50;;;;;;;7.72;80.79;98767.20;105025;1271;74422;-26
2022/04/16 07:31:27;;;;;;;3.10;2.60;;;;;;;7.52;81.85;98768.53;104917;1271;61039;-26
2022/04/16 07:33:56;;;;;;;4.00;2.60;;;;;;;7.02;84.42;98775.19;105047;1271;62136;-26
2022/04/16 07:36:25;;;;;;;3.70;1.90;;;;;;;6.90;85.45;98784.52;104928;1271;75642;-26
2022/04/16 07:38:54;;;;;;;1.50;1.20;;;;;;;7.18;84.49;98788.41;104956;1269;74804;-26
2022/04/16 07:41:23;;;;;;;3.40;2.50;;;;;;;7.36;82.66;98788.52;104990;1271;74261;-26
2022/04/16 07:43:51;;;;;;;2.80;1.50;;;;;;;7.18;83.13;98791.14;105081;1271;61147;-26
2022/04/16 07:46:22;;;;;;;3.10;2.10;;;;;;;6.99;82.57;98796.15;104901;1271;61022;-26
2022/04/16 07:48:52;;;;;;;0.90;0.80;;;;;;;6.90;82.38;98800.88;105060;1271;74509;-26
2022/04/16 07:51:20;;;;;;;3.00;1.30;;;;;;;7.09;81.37;98803.01;105126;1272;75993;-25
2022/04/16 07:53:50;;;;;;;1.90;1.10;;;;;;;7.20;80.31;98808.27;105097;1271;74447;-26
2022/04/16 07:56:18;;;;;;;1.80;1.50;;;;;;;7.13;79.88;98812.73;105049;1271;61856;-27
2022/04/16 07:58:47;;;;;;;1.40;1.20;;;;;;;6.96;80.73;98813.40;105006;1271;61691;-25
2022/04/16 08:01:17;;;;;;;9.30;1.60;;;;;;;6.80;81.14;98811.77;105102;1271;75533;-25
2022/04/16 08:03:46;;;;;;;1.40;0.90;;;;;;;6.91;80.80;98816.85;104911;1271;75059;-25
2022/04/16 08:06:14;;;;;;;1.80;1.00;;;;;;;6.99;79.25;98817.20;105151;1271;73221;-25
2022/04/16 08:08:43;;;;;;;1.70;1.50;;;;;;;7.20;78.34;98821.58;105113;1271;62154;-26
2022/04/16 08:11:18;;;;;;;2.70;1.60;;;;;;;7.09;78.85;98822.14;105089;1271;61037;-25
2022/04/16 08:13:47;;;;;;;2.20;1.70;;;;;;;7.17;77.89;98824.40;105175;1271;75514;-26
2022/04/16 08:16:35;;;;;;;2.10;1.20;;;;;;;7.24;77.73;98826.16;105100;1271;77186;-27
2022/04/16 08:19:05;;;;;;;2.20;1.10;;;;;;;7.40;76.51;98825.04;105156;1271;73163;-25
2022/04/16 08:21:34;;;;;;;1.50;0.90;;;;;;;7.49;75.83;98828.51;105140;1271;61127;-25
2022/04/16 08:24:13;;;;;;;2.00;1.10;;;;;;;7.06;77.38;98827.56;105160;1271;61172;-25
2022/04/16 08:27:01;;;;;;;1.00;0.90;;;;;;;7.09;77.46;98842.02;105074;1271;76698;-25
2022/04/16 08:29:30;;;;;;;7.00;1.10;;;;;;;6.81;77.59;98837.92;105193;1271;77766;-25
2022/04/16 08:31:58;;;;;;;0.80;0.70;;;;;;;6.62;77.63;98842.16;104945;1271;74400;-25
2022/04/16 08:35:09;;;;;;;0.50;0.50;;;;;;;7.07;74.65;98850.27;104946;1271;62095;-25
2022/04/16 08:37:57;;;;;;;0.70;0.60;;;;;;;6.97;73.96;98856.84;104775;1271;63983;-25
2022/04/16 08:40:26;;;;;;;2.30;2.10;;;;;;;6.87;73.64;98859.26;104927;1271;77261;-30
2022/04/16 08:42:54;;;;;;;1.50;0.80;;;;;;;6.84;73.64;98857.23;104970;1271;75966;-25
2022/04/16 08:45:23;;;;;;;1.50;1.00;;;;;;;6.91;73.61;98866.58;104856;1271;76111;-26
2022/04/16 08:47:52;;;;;;;1.30;1.10;;;;;;;6.82;73.62;98870.84;104803;1271;60968;-25
2022/04/16 08:50:42;;;;;;;12.00;1.50;;;;;;;7.16;72.30;98877.30;104738;1271;63078;-25
2022/04/16 08:53:10;;;;;;;2.10;0.80;;;;;;;7.36;71.91;98880.39;104769;1271;73616;-27
2022/04/16 08:55:39;;;;;;;1.60;0.80;;;;;;;6.93;73.91;98884.91;105025;1271;74994;-26
2022/04/16 08:58:08;;;;;;;4.00;1.80;;;;;;;6.84;74.82;98891.52;104895;1271;74254;-26
2022/04/16 09:00:36;;;;;;;5.50;4.30;;;;;;;6.35;76.30;98890.89;104936;1271;62023;-25
2022/04/16 09:03:06;;;;;;;2.50;1.70;;;;;;;5.89;78.23;98894.67;104997;1271;61251;-25
2022/04/16 09:05:35;;;;;;;4.50;2.80;;;;;;;6.02;78.04;98894.01;104999;1271;75505;-27
2022/04/16 09:08:06;;;;;;;2.00;1.40;;;;;;;6.00;77.98;98902.05;104923;1271;76014;-25
2022/04/16 09:10:36;;;;;;;3.20;1.40;;;;;;;6.15;77.69;98901.84;105077;1270;74440;-25
2022/04/16 09:13:07;;;;;;;1.10;1.00;;;;;;;6.04;77.73;98903.87;105040;1271;62104;-27
2022/04/16 09:15:36;;;;;;;3.20;1.50;;;;;;;5.95;77.48;98906.02;104935;1271;61047;-26
2022/04/16 09:18:06;;;;;;;1.20;1.00;;;;;;;5.81;77.69;98912.05;104921;1271;75494;-27
2022/04/16 09:20:39;;;;;;;4.50;2.20;;;;;;;5.99;76.80;98910.39;105106;1271;74992;-27
2022/04/16 09:23:15;;;;;;;1.20;1.00;;;;;;;6.27;76.33;98916.21;104798;1271;74680;-25
2022/04/16 09:25:44;;;;;;;1.70;1.40;;;;;;;5.98;76.91;98922.51;104897;1270;61269;-25
2022/04/16 09:28:15;;;;;;;3.90;1.90;;;;;;;5.84;77.18;98925.15;105063;1271;61292;-26
2022/04/16 09:30:56;;;;;;;1.70;1.40;;;;;;;5.37;78.26;98919.75;105124;1271;75300;-26
2022/04/16 09:33:25;;;;;;;2.00;1.40;;;;;;;5.44;78.23;98928.68;105080;1271;75945;-26
2022/04/16 09:35:55;;;;;;;1.70;1.20;;;;;;;5.69;76.25;98935.36;105081;1271;75320;-27
2022/04/16 09:38:30;;;;;;;1.40;1.20;;;;;;;5.85;75.31;98937.29;105118;1271;61124;-26
2022/04/16 09:41:04;;;;;;;6.10;3.20;;;;;;;5.79;75.08;98935.63;105113;1271;61095;-26
2022/04/16 09:43:37;;;;;;;22.00;9.40;;;;;;;5.75;75.25;98936.90;105092;1271;73571;-26
2022/04/16 09:46:12;;;;;;;6.00;2.90;;;;;;;5.81;75.19;98947.53;105144;1271;76082;-26
2022/04/16 09:48:41;;;;;;;23.00;10.50;;;;;;;5.73;74.79;98938.60;104981;1271;72378;-26
2022/04/16 09:51:10;;;;;;;26.40;11.40;;;;;;;5.87;74.08;98942.89;104767;1274;61727;-26
2022/04/16 09:53:39;;;;;;;2.00;1.30;;;;;;;6.06;73.32;98944.77;104933;1271;61115;-26
2022/04/16 09:56:10;;;;;;;3.60;1.30;;;;;;;6.15;73.10;98947.33;104681;1271;74368;-26
2022/04/16 09:58:40;;;;;;;23.80;10.70;;;;;;;6.30;72.68;98950.28;104743;1271;76219;-25
2022/04/16 10:01:10;;;;;;;26.90;10.60;;;;;;;6.08;72.75;98944.86;104614;1274;74379;-26
2022/04/16 10:03:39;;;;;;;7.60;4.90;;;;;;;5.97;73.38;98952.05;105009;1271;62051;-26
2022/04/16 10:06:10;;;;;;;3.10;2.50;;;;;;;5.97;72.98;98954.30;105117;1271;61931;-26
2022/04/16 10:08:39;;;;;;;1.60;1.50;;;;;;;6.02;72.64;98951.20;105013;1271;75746;-27
2022/04/16 10:11:16;;;;;;;1.90;1.50;;;;;;;6.06;72.70;98957.52;104976;1271;75961;-26
2022/04/16 10:13:53;;;;;;;8.30;5.10;;;;;;;6.20;72.56;98953.70;105122;1271;74488;-26
2022/04/16 10:16:58;;;;;;;2.70;1.80;;;;;;;5.87;73.40;98954.55;104928;1271;62063;-27
2022/04/16 10:19:46;;;;;;;18.10;9.60;;;;;;;5.69;74.16;98958.29;104957;1271;63333;-26
2022/04/16 10:22:25;;;;;;;4.70;2.50;;;;;;;5.60;74.51;98956.42;104946;1271;75809;-27
2022/04/16 10:25:13;;;;;;;11.00;6.60;;;;;;;5.90;73.91;98969.36;104824;1269;77252;-27
2022/04/16 10:27:43;;;;;;;5.10;1.80;;;;;;;6.15;72.03;98972.98;104805;1271;74403;-26
2022/04/16 10:30:17;;;;;;;10.60;4.80;;;;;;;6.20;71.49;98972.50;105120;1271;61085;-27
2022/04/16 10:32:46;;;;;;;12.00;6.60;;;;;;;6.07;71.67;98973.17;105185;1271;62819;-26
2022/04/16 10:35:16;;;;;;;3.80;2.60;;;;;;;6.03;71.55;98974.24;105017;1271;75478;-26
2022/04/16 10:37:48;;;;;;;6.10;3.40;;;;;;;6.01;71.38;98981.64;104638;1271;74865;-26
2022/04/16 10:40:18;;;;;;;3.50;2.80;;;;;;;5.92;71.21;98980.42;104864;1271;74417;-26
2022/04/16 10:43:07;;;;;;;4.00;2.60;;;;;;;5.77;72.15;98982.39;104804;1272;62906;-26
2022/04/16 10:45:36;;;;;;;35.10;16.00;;;;;;;5.93;72.32;98985.36;104924;1271;62368;-26
2022/04/16 10:48:07;;;;;;;36.30;15.00;;;;;;;5.94;72.96;98989.13;105020;1271;75458;-26
2022/04/16 10:50:48;;;;;;;32.20;16.70;;;;;;;5.81;73.53;98994.40;104790;1271;75654;-26
2022/04/16 10:53:18;;;;;;;50.00;20.30;;;;;;;5.52;74.44;98996.33;104899;1271;74241;-26
2022/04/16 10:55:48;;;;;;;27.30;12.60;;;;;;;5.46;74.84;98994.84;105003;1271;61701;-26
2022/04/16 10:58:33;;;;;;;38.70;15.50;;;;;;;5.34;75.25;99001.91;105003;1271;61038;-26
2022/04/16 11:01:07;;;;;;;33.00;12.90;;;;;;;5.51;74.89;99013.47;104957;1271;74505;-26
2022/04/16 11:03:46;;;;;;;20.80;8.20;;;;;;;5.74;73.62;99018.59;104883;1271;75706;-26
2022/04/16 11:06:16;;;;;;;5.80;2.90;;;;;;;5.50;73.55;99015.92;105105;1271;74473;-27
2022/04/16 11:08:48;;;;;;;3.60;2.50;;;;;;;5.48;73.36;99017.95;104874;1271;62021;-25
2022/04/16 11:11:17;;;;;;;6.60;4.10;;;;;;;5.44;73.43;99022.83;105080;1271;61052;-26
2022/04/16 11:13:47;;;;;;;2.40;1.70;;;;;;;5.31;73.47;99024.29;104986;1270;75379;-27
2022/04/16 11:16:23;;;;;;;25.60;8.60;;;;;;;5.45;73.35;99029.00;104832;1271;75604;-26
2022/04/16 11:18:54;;;;;;;2.70;2.20;;;;;;;5.66;72.15;99033.71;104729;1271;74372;-27
2022/04/16 11:21:29;;;;;;;8.90;3.90;;;;;;;5.40;72.08;99033.21;104932;1271;62029;-27
2022/04/16 11:24:14;;;;;;;2.20;1.70;;;;;;;5.41;72.12;99036.42;104816;1271;61813;-27
2022/04/16 11:35:27;;;;;;;2.30;1.80;;;;;;;5.38;71.69;99049.89;105006;1271;61147;-28
2022/04/16 11:37:56;;;;;;;15.70;6.20;;;;;;;5.49;70.74;99039.55;105071;1271;61806;-26
2022/04/16 11:40:26;;;;;;;11.30;6.20;;;;;;;5.60;70.77;99048.54;105090;1271;75490;-26
2022/04/16 11:42:55;;;;;;;5.50;2.50;;;;;;;5.64;70.71;99047.48;105155;1271;76210;-26
2022/04/16 11:45:23;;;;;;;3.00;1.50;;;;;;;5.36;70.80;99042.59;105184;1271;74396;-26
2022/04/16 11:47:52;;;;;;;2.80;1.40;;;;;;;5.13;71.05;99048.92;105120;1271;61115;-26
2022/04/16 11:50:23;;;;;;;5.40;2.10;;;;;;;5.05;71.05;99051.09;105158;1271;62198;-27
2022/04/16 11:52:52;;;;;;;3.00;2.00;;;;;;;5.03;71.07;99057.45;105140;1271;75532;-27
2022/04/16 11:55:21;;;;;;;2.00;1.40;;;;;;;5.10;70.95;99060.13;105124;1271;76025;-26
2022/04/16 11:57:52;;;;;;;5.30;2.70;;;;;;;5.52;70.15;99063.36;105164;1271;74377;-26
2022/04/16 12:00:22;;;;;;;21.70;9.80;;;;;;;5.41;69.93;99057.95;105094;1271;61230;-27
2022/04/16 12:02:55;;;;;;;2.70;1.90;;;;;;;5.08;71.06;99057.82;105015;1271;62125;-27
2022/04/16 12:05:25;;;;;;;8.20;4.00;;;;;;;4.79;72.28;99063.96;104890;1271;74664;-27
2022/04/16 12:07:55;;;;;;;6.20;3.50;;;;;;;4.75;72.38;99064.73;105114;1271;76032;-27
2022/04/16 12:10:47;;;;;;;6.30;4.70;;;;;;;4.73;72.44;99070.18;105060;1271;75709;-26
2022/04/16 12:13:17;;;;;;;3.20;2.90;;;;;;;4.74;72.52;99071.32;104946;1271;62649;-26